Wingerworth, United Kingdom
Current Conditions -  °F | °C
As of 10:20 PM on Friday 19 Dec 2014 (Local Time) from EGNX Reporting Station
Clear Clear  
Wind Chill:   Ceiling: Unl
Heat Index:   Visibility: 6mi
Dew Point:   Wind: 28mph
Humidity: 76%   Direction: 260°W
Pressure: 30.06"   Gusts: NA
Location:  53.2°N, 1.44°W
Report Text: EGNX 192220Z 26024KT CAVOK 06/02 Q1018
Loading
Personal Weather Stations






























Interactive Weather Map New forecast layout! Learn more

10-Day Weather Forecast

Advertisements
Track Severe Weather on mobile